Aérodrome :







RETROUVEZ-NOUS SUR...

 
LOGIN :

S'inscrire | Disclaimer

   EN    FR    IT 

 









Légende :    VFR   VFR Marginal   IFR   IFR Intensif   IFR Très Intensif
Visi : 
Plafond : 
>= 8 km
>= 3000ft
5 à 8 km
1000 à 3000 ft
1500m à 5 km
500 à 1000 ft
800 à 1500m
200 à 500 ft
< 800m
< 200 ft
Symboles :   Orages  Brouillard  Fortes neiges  Fortes précipitations  Vent > 20 kt






- Altitude de l'aérodrome : 342 ft


KCON - Concord Municipal

DERNIER METAR :
  • 241751Z AUTO 16007KT 10SM CLR 11/M07 A2995 RMK AO2 SLP144 T01061072 10117 21078 58026

METARs EXPIRÉS :
  • 241651Z AUTO 00000KT 10SM CLR 09/M07 A2998 RMK AO2 SLP155 T00941067
  • 241551Z AUTO 00000KT 10SM CLR 07/M07 A3001 RMK AO2 SLP165 T00671072

TAF KCON
Valide du 24 à 18h jusqu'au 25 à 18h UTC


241731Z 2418/2518 21005KT P6SM SCT250
FM250800 00000KT P6SM BKN140
FM251500 VRB03KT P6SM BKN050



MET'MAP, la Météo Aéronautique d'un coup d'oeil ! - Copyright ORBIFLY Décembre 2007 - Disclaimer

ORBIFLY MET'MAP TEAM :

Programmation & Développement : Alexandra Zaïnal
Sur une idée originale de : Baudouin d'Aumeries
Assistance à la programmation : Marc-Olivier Méhu
Soutien technique & logistique : Manuel Goepfert

Contact : metmap@orbifly.com




SOURCES & CREDITS :

   NOAA